Latest Weather Observations for Avalon

IDV60801

Issued at 3:35 am EDT Friday 24 October 2014 (issued every 30 minutes, with the page automatically refreshed every 10 minutes)

About weather observations | Map of weather stations | Latest weather observations for VIC | Other Formats
Station Details ID: 087113 Name: AVALON AIRPORT Lat: -38.03 Lon: 144.48 Height: 10.6 m
Data from the previous 72 hours. | See also: Recent months at Avalon
Date/Time
EDT
Temp
°C
App
Temp
°C
Dew
Point
Rel
Hum
%
Delta-T
°C
Wind Press
QNH
hPa
Press
MSL
hPa
Rain
since 9 am
mm
Dir
 
Spd
km/h
Gust
km/h
Spd
kts
Gust
kts
24/03:30am 13.5 13.3 13.0 97 0.3 ESE 6 7 3 4 1012.8 1012.8 0.0
24/03:00am 14.0 13.0 13.5 97 0.3 ESE 11 13 6 7 1012.8 1012.8 0.0
24/02:30am 14.6 13.0 14.0 96 0.3 ESE 15 20 8 11 1013.1 1013.1 0.0
24/02:00am 14.8 12.8 14.0 95 0.4 SE 17 20 9 11 1013.6 1013.6 0.0
24/01:30am 15.0 13.0 13.9 93 0.6 SE 17 20 9 11 1014.3 1014.3 0.0
24/01:00am 15.2 12.8 13.9 92 0.7 SE 19 22 10 12 1014.6 1014.6 0.0
24/12:30am 15.4 13.4 13.9 91 0.8 ESE 17 20 9 11 1015.1 1015.1 0.0
24/12:01am 15.6 12.6 13.8 89 1.0 ESE 22 30 12 16 1015.2 1015.2 0.0
24/12:00am 15.6 12.6 13.8 89 1.0 ESE 22 30 12 16 1015.2 1015.2 0.0
 
Date/Time
EDT
Temp
°C
App
Temp
°C
Dew
Point
Rel
Hum
%
Delta-T
°C
Wind Press
QNH
hPa
Press
MSL
hPa
Rain
since 9 am
mm
Dir
 
Spd
km/h
Gust
km/h
Spd
kts
Gust
kts
23/11:30pm 15.7 12.7 13.7 88 1.1 SE 22 30 12 16 1015.6 1015.6 0.0
23/11:22pm 15.8 12.8 13.6 87 1.2 SE 22 30 12 16 1015.7 1015.7 0.0
23/11:00pm 16.1 13.1 13.6 85 1.4 SE 22 30 12 16 1016.0 1016.0 0.0
23/10:30pm 16.3 12.9 13.6 84 1.5 SE 24 33 13 18 1016.3 1016.3 0.0
23/10:00pm 16.4 12.2 13.5 83 1.6 SE 28 35 15 19 1016.5 1016.5 0.0
23/09:30pm 16.4 12.6 13.5 83 1.6 SE 26 35 14 19 1016.6 1016.6 0.0
23/09:00pm 16.4 12.5 13.3 82 1.7 SE 26 35 14 19 1016.5 1016.5 0.0
23/08:30pm 16.5 14.1 13.8 84 1.5 ESE 19 22 10 12 1016.3 1016.3 0.0
23/08:00pm 16.9 13.5 13.6 81 1.9 ESE 24 30 13 16 1016.2 1016.2 0.0
23/07:30pm 17.3 15.0 14.0 81 1.9 ESE 19 24 10 13 1016.1 1016.1 0.0
23/07:00pm 17.8 15.9 14.1 79 2.1 SE 17 24 9 13 1016.2 1016.2 0.0
23/06:30pm 18.1 16.7 14.4 79 2.1 SE 15 22 8 12 1016.1 1016.1 0.0
23/06:00pm 17.4 16.2 14.1 81 1.9 SSW 13 17 7 9 1016.2 1016.2 0.0
23/05:30pm 17.5 15.4 13.6 78 2.2 SSW 17 20 9 11 1016.6 1016.6 0.0
23/05:00pm 17.2 15.3 13.1 77 2.3 S 15 20 8 11 1016.6 1016.6 0.0
23/04:30pm 17.5 14.6 13.0 75 2.5 S 20 24 11 13 1016.8 1016.8 0.0
23/04:00pm 18.1 15.4 13.0 72 2.9 S 19 22 10 12 1017.0 1017.0 0.0
23/03:30pm 17.7 16.2 13.0 74 2.6 SE 13 19 7 10 1017.5 1017.5 0.0
23/03:00pm 17.5 15.8 12.4 72 2.8 SE 13 19 7 10 1017.7 1017.7 0.0
23/02:30pm 17.3 14.8 12.2 72 2.8 ESE 17 22 9 12 1018.4 1018.4 0.0
23/02:00pm 17.2 14.1 12.3 73 2.7 ESE 20 24 11 13 1018.6 1018.6 0.0
23/01:30pm 16.9 14.0 12.2 74 2.6 SSE 19 24 10 13 1018.8 1018.8 0.0
23/01:00pm 16.3 13.7 11.9 75 2.4 SE 17 20 9 11 1019.1 1019.1 0.0
23/12:30pm 16.0 13.8 12.0 77 2.2 ESE 15 20 8 11 1019.5 1019.5 0.0
23/12:00pm 16.1 13.9 12.1 77 2.2 SE 15 20 8 11 1019.9 1019.9 0.0
23/11:51am 15.7 13.5 12.1 79 2.0 ESE 15 20 8 11 1019.9 1019.9 0.0
23/11:30am 15.6 13.6 11.6 77 2.2 SSE 13 19 7 10 1020.2 1020.2 0.0
23/11:00am 15.1 13.9 11.7 80 1.8 SE 9 13 5 7 1020.2 1020.2 0.0
23/10:59am 15.1 13.5 11.7 80 1.8 SE 11 15 6 8 1020.2 1020.2 0.0
23/10:30am 15.3 13.4 11.7 79 1.9 ESE 13 17 7 9 1020.6 1020.6 0.0
23/10:21am 15.2 13.3 11.8 80 1.8 SE 13 17 7 9 1020.7 1020.7 0.0
23/10:00am 14.9 12.9 11.5 80 1.8 SE 13 17 7 9 1020.8 1020.8 0.0
23/09:30am 14.4 12.9 11.9 85 1.3 S 11 15 6 8 1020.8 1020.8 0.0
23/09:00am 14.0 11.4 12.0 88 1.1 S 17 20 9 11 1020.7 1020.7 0.0
23/08:30am 14.4 11.3 11.7 84 1.4 S 19 24 10 13 1020.7 1020.7 0.0
23/08:00am 14.5 10.9 12.0 85 1.3 SSW 22 28 12 15 1020.4 1020.4 0.0
23/07:30am 14.6 12.0 12.1 85 1.4 S 17 20 9 11 1020.3 1020.3 0.0
23/07:00am 14.5 12.0 12.4 87 1.1 S 17 22 9 12 1020.1 1020.1 0.0
23/06:50am 14.6 12.9 12.5 87 1.1 S 13 19 7 10 1020.1 1020.1 0.0
23/06:30am 14.7 12.2 12.2 85 1.4 SSW 17 20 9 11 1019.8 1019.8 0.0
23/06:06am 14.6 12.0 12.1 85 1.4 SSW 17 20 9 11 1019.4 1019.4 0.0
23/06:00am 14.6 11.7 12.3 86 1.2 SSW 19 24 10 13 1019.4 1019.4 0.0
23/05:30am 14.6 11.2 12.6 88 1.1 SSW 22 28 12 15 1019.1 1019.1 0.0
23/05:00am 14.7 11.7 12.7 88 1.1 SSW 20 26 11 14 1018.6 1018.6 0.0
23/04:30am 14.8 12.0 13.2 90 0.9 SSW 20 24 11 13 1018.8 1018.8 0.0
23/04:00am 14.9 12.7 13.3 90 0.9 SSW 17 22 9 12 1019.0 1019.0 0.0
23/03:30am 14.9 13.0 13.1 89 1.0 SSW 15 20 8 11 1019.0 1019.0 0.0
23/03:00am 14.9 12.6 12.9 88 1.1 SSW 17 24 9 13 1019.3 1019.3 0.0
23/02:30am 14.9 12.9 12.8 87 1.2 SW 15 20 8 11 1019.1 1019.1 0.0
23/02:00am 14.9 12.2 12.8 87 1.2 SW 19 24 10 13 1019.3 1019.3 0.0
23/01:30am 14.9 12.0 12.9 88 1.1 SW 20 28 11 15 1019.3 1019.3 0.0
23/01:00am 14.8 11.6 13.0 89 1.0 SW 22 30 12 16 1019.4 1019.4 0.0
23/12:30am 14.5 12.3 13.2 92 0.7 SW 17 20 9 11 1019.3 1019.3 0.0
23/12:00am 14.8 11.3 13.3 91 0.8 SSW 24 32 13 17 1019.0 1019.0 0.0
 
Date/Time
EDT
Temp
°C
App
Temp
°C
Dew
Point
Rel
Hum
%
Delta-T
°C
Wind Press
QNH
hPa
Press
MSL
hPa
Rain
since 9 am
mm
Dir
 
Spd
km/h
Gust
km/h
Spd
kts
Gust
kts
22/11:30pm 15.3 12.8 13.5 89 1.0 SSW 19 24 10 13 1018.6 1018.6 0.0
22/11:00pm 15.7 13.0 13.5 87 1.2 SSW 20 28 11 15 1018.0 1018.0 0.0
22/10:30pm 15.9 11.7 13.6 86 1.3 SSW 28 33 15 18 1018.4 1018.4 0.0
22/10:00pm 15.4 12.8 13.8 90 0.9 SSW 20 26 11 14 1018.4 1018.4 0.0
22/09:30pm 16.2 13.2 13.7 85 1.4 SSW 22 30 12 16 1018.1 1018.1 0.0
22/09:00pm 17.5 14.1 12.6 73 2.7 SSW 22 30 12 16 1017.9 1017.9 0.0
22/08:30pm 19.0 15.1 12.0 64 3.9 SSW 24 33 13 18 1016.8 1016.8 0.0
22/08:00pm 19.9 16.3 12.9 64 4.0 SSW 24 32 13 17 1015.9 1015.9 0.0
22/07:30pm 20.6 16.3 13.1 62 4.3 SSW 28 37 15 20 1015.4 1015.4 0.0
22/07:00pm 22.9 18.1 12.8 53 5.8 SSW 30 43 16 23 1014.6 1014.6 0.0
22/06:30pm 26.1 21.7 12.9 44 7.7 SSW 28 37 15 20 1014.0 1014.0 0.0
22/06:00pm 30.8 30.7 14.0 36 10.1 ESE 7 9 4 5 1013.7 1013.7 0.0
22/05:30pm 29.6 29.6 15.3 41 8.8 ESE 9 11 5 6 1013.6 1013.6 0.0
22/05:00pm 31.8 31.0 11.0 28 12.0 N 6 9 3 5 1013.7 1013.7 0.0
22/04:30pm 30.5 29.7 12.9 34 10.4 S 9 11 5 6 1014.2 1014.2 0.0
22/04:00pm 31.0 28.3 12.8 32 10.8 E 19 20 10 11 1014.2 1014.2 0.0
22/03:30pm 31.5 29.1 12.8 32 11.1 E 17 22 9 12 1014.4 1014.4 0.0
22/03:00pm 31.8 29.2 13.1 32 11.2 E 19 24 10 13 1014.6 1014.6 0.0
22/02:30pm 31.3 28.1 13.1 33 10.9 E 22 28 12 15 1014.9 1014.9 0.0
22/02:00pm 31.7 29.5 14.4 35 10.5 E 19 24 10 13 1015.2 1015.2 0.0
22/01:30pm 31.6 30.2 13.4 33 10.9 SE 13 26 7 14 1015.5 1015.5 0.0
22/01:00pm 32.5 30.5 8.7 23 13.3 NW 9 15 5 8 1015.7 1015.7 0.0
22/12:30pm 32.9 32.3 10.3 25 13.0 W 4 11 2 6 1016.2 1016.2 0.0
22/12:00pm 31.0 29.6 10.9 29 11.6 SW 9 13 5 7 1016.7 1016.7 0.0
22/11:30am 29.7 28.8 10.8 31 10.8 W 6 9 3 5 1017.3 1017.3 0.0
22/11:00am 28.8 28.0 11.8 35 9.8 WSW 7 11 4 6 1017.7 1017.7 0.0
22/10:30am 27.8 25.9 10.5 34 9.8 NNE 11 15 6 8 1018.2 1018.2 0.0
22/10:00am 26.0 23.4 10.6 38 8.6 NNE 15 24 8 13 1018.4 1018.4 0.0
22/09:30am 24.7 21.8 10.9 42 7.7 N 17 24 9 13 1018.5 1018.5 0.0
22/09:00am 22.9 20.3 11.9 50 6.2 NNE 17 26 9 14 1018.2 1018.2 0.0
22/08:30am 17.9 16.9 13.4 75 2.5 E 11 15 6 8 1018.5 1018.5 0.0
22/08:00am 14.6 13.3 11.4 81 1.7 E 9 11 5 6 1018.5 1018.5 0.0
22/07:30am 14.4 12.6 11.0 80 1.8 ENE 11 13 6 7 1018.6 1018.6 0.0
22/07:00am 11.9 9.9 10.1 89 0.9 NE 11 13 6 7 1018.6 1018.6 0.0
22/06:30am 10.7 9.4 9.8 94 0.5 NE 7 11 4 6 1018.8 1018.8 0.0
22/06:00am 9.3 7.8 8.4 94 0.4 N 6 6 3 3 1018.9 1018.9 0.0
22/05:30am 8.9 8.0 7.7 92 0.6 NNW 2 6 1 3 1018.7 1018.7 0.0
22/05:00am 10.5 8.4 9.6 94 0.5 NE 11 13 6 7 1018.7 1018.7 0.0
22/04:30am 10.5 8.5 10.0 97 0.3 ENE 11 13 6 7 1018.8 1018.8 0.0
22/04:00am 10.0 8.2 9.5 97 0.2 NE 9 9 5 5 1019.1 1019.1 0.0
22/03:30am 9.4 8.0 8.8 96 0.3 NE 6 7 3 4 1019.2 1019.2 0.0
22/03:00am 9.0 8.6 8.1 94 0.4 CALM 0 0 0 0 1019.8 1019.8 0.0
22/02:30am 9.9 8.5 9.0 94 0.4 WNW 6 9 3 5 1020.1 1020.1 0.0
22/02:00am 11.2 10.2 10.3 94 0.5 N 6 9 3 5 1020.5 1020.5 0.0
22/01:30am 11.1 10.7 9.9 92 0.6 NNE 2 7 1 4 1020.9 1020.9 0.0
22/01:00am 13.2 12.2 12.3 94 0.5 E 9 9 5 5 1021.0 1021.0 0.0
22/12:30am 12.6 11.3 11.3 92 0.7 E 9 11 5 6 1021.5 1021.5 0.0
22/12:00am 12.8 11.6 11.5 92 0.7 E 9 11 5 6 1021.9 1021.9 0.0
 
Date/Time
EDT
Temp
°C
App
Temp
°C
Dew
Point
Rel
Hum
%
Delta-T
°C
Wind Press
QNH
hPa
Press
MSL
hPa
Rain
since 9 am
mm
Dir
 
Spd
km/h
Gust
km/h
Spd
kts
Gust
kts
21/11:30pm 13.1 11.9 11.5 90 0.8 E 9 11 5 6 1022.3 1022.3 0.0
21/11:00pm 13.0 10.9 11.1 88 1.0 ESE 13 15 7 8 1022.5 1022.5 0.0
21/10:30pm 14.4 13.3 11.9 85 1.3 E 9 9 5 5 1022.8 1022.8 0.0
21/10:00pm 15.5 14.0 11.9 79 1.9 E 11 13 6 7 1023.0 1023.0 0.0
21/09:30pm 16.6 16.1 12.6 77 2.2 ESE 7 11 4 6 1023.0 1023.0 0.0
21/09:00pm 16.9 17.3 12.6 76 2.4 WNW 2 7 1 4 1022.9 1022.9 0.0
21/08:30pm 17.0 17.2 13.1 78 2.2 SE 4 7 2 4 1022.5 1022.5 0.0
21/08:00pm 17.8 17.6 13.5 76 2.4 E 7 9 4 5 1022.4 1022.4 0.0
21/07:30pm 18.2 17.2 13.3 73 2.8 ESE 11 13 6 7 1022.3 1022.3 0.0
21/07:00pm 19.5 17.7 13.4 68 3.5 ESE 15 17 8 9 1022.1 1022.1 0.0
21/06:30pm 21.1 18.5 13.3 61 4.5 ESE 19 24 10 13 1022.1 1022.1 0.0
21/06:00pm 22.1 18.8 12.9 56 5.2 ESE 22 28 12 15 1022.3 1022.3 0.0
21/05:30pm 23.1 19.1 13.0 53 5.8 ESE 26 32 14 17 1022.2 1022.2 0.0
21/05:00pm 23.5 19.0 12.5 50 6.3 ESE 28 35 15 19 1022.3 1022.3 0.0
21/04:30pm 23.5 18.7 12.8 51 6.1 ESE 30 37 16 20 1022.4 1022.4 0.0
21/04:00pm 23.2 18.6 12.2 50 6.2 ESE 28 35 15 19 1022.7 1022.7 0.0
21/03:30pm 23.8 18.8 12.1 48 6.6 ESE 30 35 16 19 1023.1 1023.1 0.0
21/03:00pm 23.2 18.4 11.6 48 6.5 ESE 28 33 15 18 1023.6 1023.6 0.0
21/02:30pm 22.1 16.6 10.6 48 6.3 SE 30 35 16 19 1024.1 1024.1 0.0
21/02:00pm 22.4 17.6 11.8 51 5.9 SE 28 35 15 19 1024.7 1024.7 0.0
21/01:30pm 21.2 16.6 11.2 53 5.5 SE 26 33 14 18 1025.2 1025.2 0.0
21/01:00pm 20.8 16.4 10.3 51 5.7 SE 24 30 13 16 1025.8 1025.8 0.0
21/12:30pm 19.1 14.6 9.9 55 4.9 ESE 24 30 13 16 1026.0 1026.0 0.0
21/12:00pm 18.8 14.5 10.9 60 4.3 ESE 24 30 13 16 1026.1 1026.1 0.0
21/11:30am 17.7 14.1 10.6 63 3.8 ESE 20 28 11 15 1026.4 1026.4 0.0
21/11:00am 16.8 13.4 10.4 66 3.4 ESE 19 26 10 14 1026.7 1026.7 0.0
21/10:30am 15.5 12.0 10.1 70 2.8 E 19 24 10 13 1027.1 1027.1 0.0
21/10:00am 14.8 10.9 9.4 70 2.8 E 20 24 11 13 1027.3 1027.3 0.0
21/09:30am 13.7 9.7 9.0 73 2.4 E 20 24 11 13 1027.4 1027.4 0.0
21/09:00am 12.8 9.9 8.3 74 2.2 E 13 17 7 9 1027.5 1027.5 0.0
21/08:30am 11.8 9.8 8.8 82 1.5 E 9 13 5 7 1027.3 1027.3 0.0
21/08:00am 9.1 8.7 8.3 95 0.4 CALM 0 0 0 0 1027.0 1027.0 0.0
21/07:30am 6.9 6.1 6.3 96 0.3 CALM 0 0 0 0 1026.8 1026.8 0.0
21/07:00am 5.8 4.4 5.4 97 0.2 NW 2 6 1 3 1026.6 1026.6 0.0
21/06:30am 4.8 2.4 4.1 95 0.3 NW 6 9 3 5 1026.3 1026.3 0.0
21/06:00am 5.9 4.8 5.2 95 0.3 CALM 0 0 0 0 1026.1 1026.1 0.0
21/05:30am 5.7 3.3 4.5 92 0.5 NNW 6 6 3 3 1025.9 1025.9 0.0
21/05:00am 6.5 4.0 4.7 88 0.8 NNE 7 9 4 5 1026.2 1026.2 0.0
21/04:30am 8.6 5.8 7.1 90 0.7 E 11 13 6 7 1025.9 1025.9 0.0
21/04:00am 9.2 6.5 7.2 87 0.9 E 11 13 6 7 1026.0 1026.0 0.0

Other Formats:

Comma delimited format used in spreadsheet applications
http://www.bom.gov.au/fwo/IDV60801/IDV60801.94854.axf

JavaScript Object Notation format (JSON) in row-major order
http://www.bom.gov.au/fwo/IDV60801/IDV60801.94854.json